Time;durP1;ratioP1;P1;durP2;ratioP2;P2;SDS_P1;SDS_P2;PMS_P1;PMS_P2;Temp;Humidity;BMP_temperature;BMP_pressure;BME280_temperature;BME280_humidity;BME280_pressure;Samples;Min_cycle;Max_cycle;Signal;HPM_P1;HPM_P2
2023/11/30 00:02:19;;;;;;;0.00;0.00;;;22.90;46.00;;;;;;5033563;28;20200;-45
2023/11/30 00:04:50;;;;;;;0.10;0.10;;;22.90;46.10;;;;;;5032954;28;20215;-46
2023/11/30 00:07:20;;;;;;;0.00;0.00;;;22.90;46.00;;;;;;5033008;28;20224;-50
2023/11/30 00:09:53;;;;;;;0.00;0.00;;;22.90;46.60;;;;;;5032974;28;20200;-51
2023/11/30 00:12:24;;;;;;;0.00;0.00;;;23.00;46.10;;;;;;5032866;28;20204;-47
2023/11/30 00:14:54;;;;;;;0.00;0.00;;;23.00;46.00;;;;;;5033165;28;20563;-47
2023/11/30 00:17:25;;;;;;;0.00;0.00;;;23.00;46.00;;;;;;5033483;28;20203;-49
2023/11/30 00:19:55;;;;;;;0.00;0.00;;;23.00;46.00;;;;;;5033292;28;20669;-46
2023/11/30 00:22:26;;;;;;;0.00;0.00;;;23.00;46.00;;;;;;5033667;28;20444;-48
2023/11/30 00:24:59;;;;;;;0.00;0.00;;;23.10;46.00;;;;;;5033548;28;20200;-48
2023/11/30 00:27:29;;;;;;;0.10;0.10;;;23.10;46.00;;;;;;5033301;28;20231;-49
2023/11/30 00:30:00;;;;;;;0.00;0.00;;;23.10;45.90;;;;;;5033245;28;20688;-46
2023/11/30 00:32:31;;;;;;;0.10;0.10;;;23.20;45.90;;;;;;5033613;28;20620;-46
2023/11/30 00:35:02;;;;;;;0.00;0.00;;;23.20;45.80;;;;;;5033410;28;20200;-48
2023/11/30 00:37:32;;;;;;;0.05;0.05;;;23.20;45.80;;;;;;5033536;28;20198;-49
2023/11/30 00:40:05;;;;;;;0.00;0.00;;;23.30;45.90;;;;;;5033489;28;20220;-46
2023/11/30 00:42:36;;;;;;;0.00;0.00;;;23.30;45.90;;;;;;5032902;28;20193;-46
2023/11/30 00:45:07;;;;;;;0.10;0.10;;;23.30;45.80;;;;;;5032827;28;20204;-48
2023/11/30 00:47:38;;;;;;;0.00;0.00;;;23.30;45.80;;;;;;5032093;28;20224;-47
2023/11/30 00:50:09;;;;;;;0.00;0.00;;;23.40;45.80;;;;;;5032670;28;20224;-47
2023/11/30 00:52:40;;;;;;;0.00;0.00;;;23.40;45.80;;;;;;5033116;28;20201;-48
2023/11/30 00:55:13;;;;;;;0.00;0.00;;;23.40;45.70;;;;;;5032928;28;20211;-49
2023/11/30 00:57:43;;;;;;;0.00;0.00;;;23.40;45.70;;;;;;5019309;28;20204;-48
2023/11/30 01:00:14;;;;;;;0.00;0.00;;;23.40;45.70;;;;;;5013139;28;20219;-48
2023/11/30 01:02:45;;;;;;;0.08;0.08;;;23.50;45.80;;;;;;5012998;28;20197;-46
2023/11/30 01:05:16;;;;;;;0.00;0.00;;;23.50;45.80;;;;;;5013289;28;20216;-49
2023/11/30 01:07:46;;;;;;;0.05;0.05;;;23.50;45.90;;;;;;5013049;28;20684;-48
2023/11/30 01:10:19;;;;;;;0.03;0.03;;;23.50;45.90;;;;;;5018945;28;20579;-48
2023/11/30 01:12:50;;;;;;;0.00;0.00;;;23.50;45.80;;;;;;5032783;28;20200;-47
2023/11/30 01:15:20;;;;;;;0.00;0.00;;;23.60;45.80;;;;;;5028997;28;20200;-46
2023/11/30 01:17:51;;;;;;;0.00;0.00;;;23.60;45.60;;;;;;5012741;28;20208;-48
2023/11/30 01:20:22;;;;;;;0.00;0.00;;;23.60;45.60;;;;;;5012415;28;20221;-47
2023/11/30 01:22:52;;;;;;;0.00;0.00;;;23.60;45.60;;;;;;5012328;28;20208;-47
2023/11/30 01:25:25;;;;;;;0.00;0.00;;;23.70;45.60;;;;;;5012358;28;20212;-48
2023/11/30 01:27:55;;;;;;;0.10;0.10;;;23.70;45.50;;;;;;5011979;28;20239;-49
2023/11/30 01:30:26;;;;;;;0.00;0.00;;;23.70;45.40;;;;;;5012184;28;20221;-47
2023/11/30 01:32:57;;;;;;;0.00;0.00;;;23.70;45.40;;;;;;5012274;28;20197;-46
2023/11/30 01:35:28;;;;;;;0.00;0.00;;;23.80;45.40;;;;;;5012057;28;20204;-47
2023/11/30 01:37:59;;;;;;;0.00;0.00;;;23.80;45.40;;;;;;5026182;28;20670;-45
2023/11/30 01:40:32;;;;;;;0.10;0.10;;;23.80;45.40;;;;;;5031661;28;20224;-45
2023/11/30 01:43:02;;;;;;;0.00;0.00;;;23.80;45.40;;;;;;5031685;28;20196;-49
2023/11/30 01:45:33;;;;;;;0.00;0.00;;;23.80;45.30;;;;;;5031712;28;20205;-50
2023/11/30 01:48:04;;;;;;;0.00;0.00;;;23.80;45.30;;;;;;5031739;28;20232;-46
2023/11/30 01:50:35;;;;;;;0.00;0.00;;;23.80;45.20;;;;;;5031536;28;20222;-47
2023/11/30 01:53:06;;;;;;;0.00;0.00;;;23.80;45.20;;;;;;5031743;28;20200;-45
2023/11/30 01:55:39;;;;;;;0.00;0.00;;;23.80;45.20;;;;;;5032261;28;20208;-49
2023/11/30 01:58:12;;;;;;;0.00;0.00;;;23.90;45.30;;;;;;5032179;28;20690;-47
2023/11/30 02:00:43;;;;;;;0.00;0.00;;;23.90;45.30;;;;;;5031755;28;20215;-46
2023/11/30 02:03:14;;;;;;;0.00;0.00;;;23.90;45.30;;;;;;5031870;28;20203;-47
2023/11/30 02:05:45;;;;;;;0.00;0.00;;;23.90;45.30;;;;;;5031905;28;20199;-50
2023/11/30 02:08:16;;;;;;;0.00;0.00;;;23.90;45.30;;;;;;5031723;28;20251;-46
2023/11/30 02:10:49;;;;;;;0.10;0.10;;;24.00;45.30;;;;;;5031462;28;20223;-46
2023/11/30 02:13:19;;;;;;;0.00;0.00;;;24.00;45.20;;;;;;5031344;28;20196;-49
2023/11/30 02:15:50;;;;;;;0.05;0.05;;;24.00;45.20;;;;;;5031595;28;20651;-48
2023/11/30 02:18:21;;;;;;;0.00;0.00;;;24.00;45.10;;;;;;5031729;28;20554;-48
2023/11/30 02:20:51;;;;;;;0.00;0.00;;;24.00;45.10;;;;;;5031660;28;20216;-46
2023/11/30 02:23:24;;;;;;;0.00;0.00;;;24.00;45.00;;;;;;5030948;28;20200;-49
2023/11/30 02:25:54;;;;;;;0.00;0.00;;;24.00;45.00;;;;;;5031405;28;20201;-47
2023/11/30 02:28:25;;;;;;;0.00;0.00;;;24.10;44.90;;;;;;5030987;28;20196;-48
2023/11/30 02:30:56;;;;;;;0.00;0.00;;;24.10;44.90;;;;;;5031148;28;20220;-46
2023/11/30 02:33:26;;;;;;;0.00;0.00;;;24.10;44.90;;;;;;5031441;28;20636;-48
2023/11/30 02:35:57;;;;;;;0.00;0.00;;;24.10;45.00;;;;;;5031592;28;20638;-48
2023/11/30 02:38:30;;;;;;;0.00;0.00;;;24.10;44.90;;;;;;5020683;28;20197;-50
2023/11/30 02:41:00;;;;;;;0.00;0.00;;;24.10;44.90;;;;;;5023758;28;20231;-50
2023/11/30 02:43:31;;;;;;;0.00;0.00;;;24.10;44.90;;;;;;5020663;28;20587;-48
2023/11/30 02:46:02;;;;;;;0.10;0.10;;;24.10;45.00;;;;;;5016148;28;20680;-50
2023/11/30 02:48:32;;;;;;;0.00;0.00;;;24.10;45.00;;;;;;5017974;28;20219;-50
2023/11/30 02:51:03;;;;;;;0.00;0.00;;;24.10;44.90;;;;;;5025787;28;20224;-48
2023/11/30 02:53:35;;;;;;;0.00;0.00;;;24.20;45.00;;;;;;5013306;28;20197;-49
2023/11/30 02:56:07;;;;;;;0.00;0.00;;;24.10;44.90;;;;;;5027660;28;20652;-47
2023/11/30 02:58:37;;;;;;;0.00;0.00;;;24.20;44.90;;;;;;5016517;28;20200;-49
2023/11/30 03:01:08;;;;;;;0.00;0.00;;;24.20;44.90;;;;;;5018067;28;20212;-46
2023/11/30 03:03:39;;;;;;;0.00;0.00;;;24.20;44.90;;;;;;5025517;28;20212;-48
2023/11/30 03:06:14;;;;;;;0.00;0.00;;;24.20;44.90;;;;;;5027763;28;20192;-50
2023/11/30 03:08:47;;;;;;;0.00;0.00;;;24.20;44.90;;;;;;5013742;28;20196;-49
2023/11/30 03:11:18;;;;;;;0.00;0.00;;;24.20;44.80;;;;;;5023345;28;20217;-46
2023/11/30 03:13:48;;;;;;;0.00;0.00;;;24.20;44.80;;;;;;5028504;28;20208;-48
2023/11/30 03:16:26;;;;;;;0.00;0.00;;;24.20;44.70;;;;;;5024656;28;20193;-47
2023/11/30 03:18:57;;;;;;;0.00;0.00;;;24.20;44.60;;;;;;5028511;28;20211;-52
2023/11/30 03:21:29;;;;;;;0.00;0.00;;;24.20;44.50;;;;;;5016916;28;20243;-48
2023/11/30 03:24:01;;;;;;;0.00;0.00;;;24.10;44.40;;;;;;5020816;28;20648;-47
2023/11/30 03:26:32;;;;;;;0.00;0.00;;;24.20;44.50;;;;;;5026878;28;20232;-49
2023/11/30 03:29:02;;;;;;;0.00;0.00;;;24.10;44.40;;;;;;5014369;28;20189;-49
2023/11/30 03:31:33;;;;;;;0.00;0.00;;;24.10;44.30;;;;;;5030827;28;20224;-46
2023/11/30 03:34:04;;;;;;;0.00;0.00;;;24.10;44.30;;;;;;5031850;28;20192;-49
2023/11/30 03:36:34;;;;;;;0.00;0.00;;;24.10;44.30;;;;;;5032637;28;20204;-47
2023/11/30 03:39:07;;;;;;;0.00;0.00;;;24.10;44.40;;;;;;5031926;28;20666;-48
2023/11/30 03:41:38;;;;;;;0.00;0.00;;;24.10;44.30;;;;;;5022888;28;20229;-48
2023/11/30 03:44:08;;;;;;;0.00;0.00;;;24.10;44.40;;;;;;5016166;28;20201;-46
2023/11/30 03:46:39;;;;;;;0.10;0.10;;;24.10;44.40;;;;;;5014720;28;20315;-48
2023/11/30 03:49:10;;;;;;;0.00;0.00;;;24.10;44.40;;;;;;5017671;28;20192;-49
2023/11/30 03:51:41;;;;;;;0.00;0.00;;;24.10;44.40;;;;;;5014366;28;20267;-50
2023/11/30 03:54:13;;;;;;;0.00;0.00;;;24.10;44.40;;;;;;5031592;28;20196;-46
2023/11/30 03:56:44;;;;;;;0.00;0.00;;;24.10;44.40;;;;;;5012983;28;20209;-45
2023/11/30 03:59:15;;;;;;;0.00;0.00;;;24.10;44.30;;;;;;5017287;28;20204;-50
2023/11/30 04:01:45;;;;;;;0.00;0.00;;;24.00;44.30;;;;;;5027821;28;20219;-49
2023/11/30 04:04:16;;;;;;;0.00;0.00;;;24.00;44.30;;;;;;5013882;28;20205;-46
2023/11/30 04:06:47;;;;;;;0.00;0.00;;;24.00;44.30;;;;;;5029345;28;20676;-48
2023/11/30 04:09:19;;;;;;;0.00;0.00;;;24.00;44.30;;;;;;5017663;28;20219;-51
2023/11/30 04:11:50;;;;;;;0.00;0.00;;;24.00;44.30;;;;;;5021704;28;20217;-49
2023/11/30 04:14:20;;;;;;;0.00;0.00;;;24.00;44.30;;;;;;5013691;28;20541;-46
2023/11/30 04:16:51;;;;;;;0.00;0.00;;;24.00;44.40;;;;;;5029002;28;20196;-47
2023/11/30 04:19:22;;;;;;;0.00;0.00;;;24.00;44.40;;;;;;5013667;28;20208;-49
2023/11/30 04:21:52;;;;;;;0.00;0.00;;;23.90;44.30;;;;;;5023357;28;20220;-48
2023/11/30 04:24:25;;;;;;;0.00;0.00;;;23.90;44.30;;;;;;5013793;28;20593;-48
2023/11/30 04:26:56;;;;;;;0.00;0.00;;;23.90;44.30;;;;;;5024413;28;20224;-47
2023/11/30 04:29:26;;;;;;;0.00;0.00;;;23.90;44.30;;;;;;5013383;28;20654;-45
2023/11/30 04:31:57;;;;;;;0.10;0.10;;;23.90;44.40;;;;;;5029134;28;20212;-48
2023/11/30 04:34:28;;;;;;;0.00;0.00;;;23.80;45.00;;;;;;5018125;28;20683;-45
2023/11/30 04:36:58;;;;;;;0.00;0.00;;;23.80;44.30;;;;;;5019159;28;20648;-50
2023/11/30 04:39:31;;;;;;;0.00;0.00;;;23.80;45.00;;;;;;5013417;28;20193;-49
2023/11/30 04:42:02;;;;;;;0.00;0.00;;;23.80;44.40;;;;;;5033077;28;20591;-45
2023/11/30 04:44:33;;;;;;;0.00;0.00;;;23.80;44.40;;;;;;5012755;28;20201;-46
2023/11/30 04:47:04;;;;;;;0.00;0.00;;;23.80;44.40;;;;;;5013332;28;20461;-48
2023/11/30 04:49:34;;;;;;;0.10;0.10;;;23.80;44.40;;;;;;5013154;28;20204;-48
2023/11/30 04:52:05;;;;;;;0.00;0.00;;;23.80;44.40;;;;;;5027120;28;20197;-46
2023/11/30 04:54:38;;;;;;;0.00;0.00;;;23.70;44.30;;;;;;5031637;28;20215;-48
2023/11/30 04:57:08;;;;;;;0.10;0.10;;;23.70;44.30;;;;;;5026975;28;20193;-47
2023/11/30 04:59:40;;;;;;;0.00;0.00;;;23.70;44.30;;;;;;5021356;28;20200;-48
2023/11/30 05:02:11;;;;;;;0.00;0.00;;;23.70;44.40;;;;;;5020050;28;20189;-48
2023/11/30 05:04:42;;;;;;;0.00;0.00;;;23.70;44.60;;;;;;5012848;28;20192;-49
2023/11/30 05:07:13;;;;;;;0.08;0.08;;;23.70;44.40;;;;;;5013004;28;20311;-48
2023/11/30 05:09:45;;;;;;;0.05;0.05;;;23.60;44.30;;;;;;5015053;28;20193;-48
2023/11/30 05:12:16;;;;;;;0.00;0.00;;;23.60;44.30;;;;;;5030015;28;20204;-45
2023/11/30 05:14:47;;;;;;;0.10;0.10;;;23.60;44.30;;;;;;5012843;28;20193;-48
2023/11/30 05:17:18;;;;;;;0.00;0.00;;;23.50;44.40;;;;;;5015358;28;20188;-49
2023/11/30 05:19:48;;;;;;;0.10;0.10;;;23.50;44.40;;;;;;5013088;28;20211;-47
2023/11/30 05:22:19;;;;;;;0.00;0.00;;;23.50;44.40;;;;;;5012337;28;20201;-48
2023/11/30 05:24:52;;;;;;;0.00;0.00;;;23.50;44.40;;;;;;5012358;28;20680;-48
2023/11/30 05:27:23;;;;;;;0.05;0.05;;;23.50;44.40;;;;;;5012524;28;21514;-48
2023/11/30 05:29:53;;;;;;;0.10;0.10;;;23.50;44.40;;;;;;5012535;28;20591;-50
2023/11/30 05:32:24;;;;;;;0.00;0.00;;;23.50;44.40;;;;;;5012685;28;20220;-48
2023/11/30 05:34:55;;;;;;;0.00;0.00;;;23.40;44.40;;;;;;5012434;28;20657;-48
2023/11/30 05:37:26;;;;;;;0.08;0.08;;;23.40;44.40;;;;;;5012220;28;20568;-48
2023/11/30 05:39:58;;;;;;;0.00;0.00;;;23.40;44.30;;;;;;5016161;28;20303;-48
2023/11/30 05:42:30;;;;;;;0.00;0.00;;;23.40;44.40;;;;;;5031993;28;20635;-46
2023/11/30 05:45:01;;;;;;;0.00;0.00;;;23.40;44.40;;;;;;5030971;28;20295;-50
2023/11/30 05:47:32;;;;;;;0.05;0.05;;;23.40;44.40;;;;;;5031725;28;20227;-46
2023/11/30 05:50:03;;;;;;;0.00;0.00;;;23.30;44.40;;;;;;5032042;28;20224;-46
2023/11/30 05:52:34;;;;;;;0.00;0.00;;;23.30;44.30;;;;;;5017793;28;20614;-48
2023/11/30 05:55:09;;;;;;;0.03;0.03;;;23.30;44.40;;;;;;5012365;28;20197;-48
2023/11/30 05:57:39;;;;;;;0.05;0.05;;;23.30;44.40;;;;;;5010914;28;20211;-47
2023/11/30 06:00:12;;;;;;;0.08;0.08;;;23.20;44.40;;;;;;5012195;28;20216;-45
2023/11/30 06:02:43;;;;;;;0.10;0.10;;;23.20;44.40;;;;;;5028518;28;20204;-46
2023/11/30 06:05:14;;;;;;;0.00;0.00;;;23.20;44.40;;;;;;5019640;28;20200;-46
2023/11/30 06:07:45;;;;;;;0.00;0.00;;;23.20;44.40;;;;;;5013213;28;20220;-48
2023/11/30 06:10:17;;;;;;;0.00;0.00;;;23.20;44.50;;;;;;5028034;28;20256;-48
2023/11/30 06:12:48;;;;;;;0.00;0.00;;;23.10;44.50;;;;;;5026936;28;20589;-47
2023/11/30 06:15:19;;;;;;;0.00;0.00;;;23.10;44.50;;;;;;5019125;28;20204;-45
2023/11/30 06:17:50;;;;;;;0.00;0.00;;;23.10;44.50;;;;;;5019985;28;20200;-44
2023/11/30 06:20:21;;;;;;;0.10;0.10;;;23.10;44.50;;;;;;5011565;28;20276;-47
2023/11/30 06:22:51;;;;;;;0.10;0.10;;;23.10;44.50;;;;;;5026867;28;20555;-48
2023/11/30 06:25:24;;;;;;;0.00;0.00;;;23.00;44.40;;;;;;5014402;28;20193;-51
2023/11/30 06:27:54;;;;;;;0.10;0.10;;;23.00;44.40;;;;;;5014587;28;20233;-49
2023/11/30 06:30:25;;;;;;;0.00;0.00;;;23.00;44.40;;;;;;5011853;28;20223;-45
2023/11/30 06:32:56;;;;;;;0.00;0.00;;;23.00;44.40;;;;;;5025064;28;20197;-45
2023/11/30 06:35:26;;;;;;;0.00;0.00;;;23.00;44.40;;;;;;5011595;28;20203;-45
2023/11/30 06:37:57;;;;;;;0.00;0.00;;;22.90;44.30;;;;;;5012540;28;20200;-50
2023/11/30 06:40:29;;;;;;;0.00;0.00;;;22.90;44.30;;;;;;5010829;28;20220;-48
2023/11/30 06:43:00;;;;;;;0.00;0.00;;;22.90;44.40;;;;;;5026676;28;20203;-48
2023/11/30 06:45:31;;;;;;;0.00;0.00;;;22.90;44.30;;;;;;5030133;28;20203;-49
2023/11/30 06:48:01;;;;;;;0.00;0.00;;;22.90;44.40;;;;;;5021057;28;20256;-47
2023/11/30 06:50:31;;;;;;;0.08;0.08;;;22.80;44.30;;;;;;5011100;28;20220;-47
2023/11/30 06:53:01;;;;;;;0.00;0.00;;;22.80;44.40;;;;;;5022961;28;20197;-49
2023/11/30 06:55:34;;;;;;;0.03;0.03;;;22.80;44.40;;;;;;5022411;28;20207;-48
2023/11/30 06:58:06;;;;;;;0.10;0.10;;;22.80;44.50;;;;;;5018190;28;20200;-46
2023/11/30 07:00:36;;;;;;;0.00;0.00;;;22.80;44.50;;;;;;5028912;28;20224;-43
2023/11/30 07:03:07;;;;;;;0.00;0.00;;;22.70;44.50;;;;;;5026616;28;20184;-48
2023/11/30 07:05:37;;;;;;;0.00;0.00;;;22.70;44.40;;;;;;5010970;28;20359;-48
2023/11/30 07:08:08;;;;;;;0.00;0.00;;;22.70;44.40;;;;;;5027606;28;20239;-47
2023/11/30 07:10:41;;;;;;;0.10;0.10;;;22.70;44.40;;;;;;5030791;28;20274;-50
2023/11/30 07:13:11;;;;;;;0.00;0.00;;;22.70;44.40;;;;;;5029971;28;20196;-49
2023/11/30 07:15:43;;;;;;;0.00;0.00;;;22.70;44.40;;;;;;5017456;28;20193;-51
2023/11/30 07:18:14;;;;;;;0.08;0.08;;;22.70;44.40;;;;;;5031320;28;20656;-48
2023/11/30 07:20:44;;;;;;;0.00;0.00;;;22.70;44.40;;;;;;5021624;28;20221;-47
2023/11/30 07:23:15;;;;;;;0.00;0.00;;;22.60;44.40;;;;;;5029711;28;20197;-48
2023/11/30 07:25:47;;;;;;;0.00;0.00;;;22.60;44.40;;;;;;5031679;28;20213;-47
2023/11/30 07:28:18;;;;;;;0.00;0.00;;;22.60;44.40;;;;;;5033234;28;20220;-46
2023/11/30 07:30:49;;;;;;;0.00;0.00;;;22.60;44.50;;;;;;5017715;28;20224;-48
2023/11/30 07:33:19;;;;;;;0.00;0.00;;;22.60;44.50;;;;;;5020168;28;20437;-48
2023/11/30 07:35:50;;;;;;;0.10;0.10;;;22.50;44.50;;;;;;5019821;28;20647;-48
2023/11/30 07:38:21;;;;;;;0.08;0.08;;;22.50;44.50;;;;;;5030278;28;20204;-47
2023/11/30 07:40:54;;;;;;;0.10;0.10;;;22.50;44.50;;;;;;5024775;28;20223;-47
2023/11/30 07:43:24;;;;;;;0.00;0.00;;;22.50;44.50;;;;;;5030295;28;20554;-46
2023/11/30 07:45:55;;;;;;;0.00;0.00;;;22.40;44.60;;;;;;5021688;28;20575;-47
2023/11/30 07:48:29;;;;;;;0.10;0.10;;;22.40;44.60;;;;;;5029424;28;20226;-46
2023/11/30 07:51:00;;;;;;;0.00;0.00;;;22.40;44.60;;;;;;5030810;28;20220;-48
2023/11/30 07:53:31;;;;;;;0.00;0.00;;;22.40;44.60;;;;;;5029062;28;20649;-46
2023/11/30 07:56:03;;;;;;;0.00;0.00;;;22.40;44.60;;;;;;5028407;28;20556;-48
2023/11/30 07:58:34;;;;;;;0.10;0.10;;;22.40;44.60;;;;;;5025213;28;20201;-45
2023/11/30 08:01:05;;;;;;;0.00;0.00;;;22.40;44.70;;;;;;5021043;28;20248;-48
2023/11/30 08:03:35;;;;;;;0.00;0.00;;;22.30;44.60;;;;;;5032414;28;20209;-49
2023/11/30 08:06:07;;;;;;;0.00;0.00;;;22.30;44.70;;;;;;5031168;28;20196;-47
2023/11/30 08:08:38;;;;;;;0.10;0.10;;;22.30;44.60;;;;;;5018065;28;20229;-48
2023/11/30 08:11:12;;;;;;;0.10;0.10;;;22.30;44.70;;;;;;5018683;28;20213;-48
2023/11/30 08:13:42;;;;;;;0.00;0.00;;;22.20;44.60;;;;;;5028879;28;20267;-47
2023/11/30 08:16:13;;;;;;;0.00;0.00;;;22.30;44.70;;;;;;5013350;28;20205;-46
2023/11/30 08:18:44;;;;;;;0.10;0.10;;;22.30;44.70;;;;;;5029854;28;20633;-47
2023/11/30 08:21:14;;;;;;;0.10;0.10;;;22.20;44.70;;;;;;5017117;28;20243;-48
2023/11/30 08:23:45;;;;;;;0.00;0.00;;;22.20;44.80;;;;;;5028497;28;20215;-48
2023/11/30 08:26:18;;;;;;;0.00;0.00;;;22.20;44.80;;;;;;5018477;28;20541;-48
2023/11/30 08:28:49;;;;;;;0.10;0.10;;;22.10;44.80;;;;;;5029650;28;20228;-45
2023/11/30 08:31:20;;;;;;;0.00;0.00;;;22.10;44.80;;;;;;5018562;28;20223;-45
2023/11/30 08:33:50;;;;;;;0.00;0.00;;;22.10;44.90;;;;;;5019305;28;20193;-48
2023/11/30 08:36:21;;;;;;;0.00;0.00;;;22.10;44.90;;;;;;5012627;28;20193;-48
2023/11/30 08:38:51;;;;;;;0.00;0.00;;;22.10;44.90;;;;;;5028115;28;20200;-46
2023/11/30 08:41:24;;;;;;;0.00;0.00;;;22.10;45.00;;;;;;5028282;28;20216;-44
2023/11/30 08:43:55;;;;;;;0.10;0.10;;;22.10;44.90;;;;;;5017822;28;20213;-48
2023/11/30 08:46:25;;;;;;;0.00;0.00;;;22.10;45.00;;;;;;5020291;28;20253;-45
2023/11/30 08:48:56;;;;;;;0.10;0.10;;;22.00;44.90;;;;;;5026145;28;20224;-48
2023/11/30 08:51:27;;;;;;;0.00;0.00;;;22.00;44.90;;;;;;5019752;28;20220;-47
2023/11/30 08:53:58;;;;;;;0.00;0.00;;;22.00;45.00;;;;;;5028543;28;20204;-47
2023/11/30 08:56:31;;;;;;;0.00;0.00;;;22.00;45.00;;;;;;5025755;28;20207;-43
2023/11/30 08:59:01;;;;;;;0.10;0.10;;;21.90;45.00;;;;;;5027568;28;20196;-48
2023/11/30 09:01:32;;;;;;;0.00;0.00;;;22.00;45.00;;;;;;5031149;28;20224;-47
2023/11/30 09:04:05;;;;;;;0.10;0.10;;;21.90;45.00;;;;;;5017738;28;20596;-48
2023/11/30 09:06:36;;;;;;;0.00;0.00;;;21.90;45.00;;;;;;5010722;28;20189;-48
2023/11/30 09:09:06;;;;;;;0.08;0.08;;;21.90;45.00;;;;;;5027305;28;20219;-47
2023/11/30 09:11:39;;;;;;;0.00;0.00;;;21.90;45.10;;;;;;5029140;28;20698;-48
2023/11/30 09:14:10;;;;;;;0.08;0.08;;;21.80;45.10;;;;;;5015403;28;20200;-46
2023/11/30 09:16:40;;;;;;;0.00;0.00;;;21.80;45.10;;;;;;5025261;28;20188;-48
2023/11/30 09:19:11;;;;;;;0.00;0.00;;;21.80;45.10;;;;;;5024945;28;20574;-48
2023/11/30 09:21:42;;;;;;;0.10;0.10;;;21.80;45.20;;;;;;5016694;28;20212;-46
2023/11/30 09:24:12;;;;;;;0.05;0.05;;;21.80;45.20;;;;;;5018362;28;20200;-46
2023/11/30 09:26:45;;;;;;;0.10;0.10;;;21.80;45.20;;;;;;5017511;28;20203;-48
2023/11/30 09:29:16;;;;;;;0.00;0.00;;;21.70;45.20;;;;;;5020341;28;20282;-46
2023/11/30 09:31:47;;;;;;;0.00;0.00;;;21.80;45.20;;;;;;5021644;28;20216;-47
2023/11/30 09:34:17;;;;;;;0.10;0.10;;;21.70;45.20;;;;;;5030625;28;20192;-47
2023/11/30 09:36:49;;;;;;;0.00;0.00;;;21.70;45.20;;;;;;5019600;28;20199;-45
2023/11/30 09:39:19;;;;;;;0.00;0.00;;;21.70;45.20;;;;;;5022489;28;20192;-49
2023/11/30 09:41:52;;;;;;;0.10;0.10;;;21.70;45.20;;;;;;5029699;28;20216;-48
2023/11/30 09:44:22;;;;;;;0.00;0.00;;;21.70;45.20;;;;;;5030967;28;20581;-46
2023/11/30 09:46:53;;;;;;;0.00;0.00;;;21.70;45.20;;;;;;5031092;28;20196;-46
2023/11/30 09:49:24;;;;;;;0.00;0.00;;;21.70;45.30;;;;;;5030658;28;20220;-45
2023/11/30 09:51:55;;;;;;;0.00;0.00;;;21.60;45.20;;;;;;5031093;28;20204;-47
2023/11/30 09:54:27;;;;;;;0.00;0.00;;;21.60;45.20;;;;;;5031313;28;20207;-48
2023/11/30 09:57:01;;;;;;;0.10;0.10;;;21.60;45.20;;;;;;5030649;28;20555;-53
2023/11/30 09:59:32;;;;;;;0.10;0.10;;;21.60;45.30;;;;;;5031661;28;20200;-49
2023/11/30 10:02:03;;;;;;;0.00;0.00;;;21.60;45.30;;;;;;5030464;28;20192;-48
2023/11/30 10:04:32;;;;;;;0.10;0.10;;;21.60;45.30;;;;;;5031028;28;20717;-47
2023/11/30 10:07:04;;;;;;;0.00;0.00;;;21.60;45.30;;;;;;5030775;28;20195;-48
2023/11/30 10:09:37;;;;;;;0.00;0.00;;;21.50;45.30;;;;;;5031024;28;20216;-45
2023/11/30 10:12:10;;;;;;;0.00;0.00;;;21.50;45.30;;;;;;5031232;28;20200;-46
2023/11/30 10:14:41;;;;;;;0.10;0.10;;;21.50;45.30;;;;;;5030928;28;20245;-42
2023/11/30 10:17:11;;;;;;;0.00;0.00;;;21.50;45.30;;;;;;5031323;28;20188;-48
2023/11/30 10:19:42;;;;;;;0.10;0.10;;;21.50;45.30;;;;;;5031210;28;20284;-46
2023/11/30 10:22:13;;;;;;;0.00;0.00;;;21.50;45.30;;;;;;5031299;28;20537;-46
2023/11/30 10:24:44;;;;;;;0.00;0.00;;;21.40;45.30;;;;;;5030039;28;20203;-46
2023/11/30 10:27:18;;;;;;;0.00;0.00;;;21.50;45.30;;;;;;5030808;28;20195;-45
2023/11/30 10:29:51;;;;;;;0.00;0.00;;;21.50;46.00;;;;;;5029857;28;20231;-45
2023/11/30 10:32:24;;;;;;;0.00;0.00;;;21.40;45.40;;;;;;5030662;28;20203;-46
2023/11/30 10:34:58;;;;;;;0.00;0.00;;;21.40;45.40;;;;;;5030683;28;20200;-47
2023/11/30 10:37:31;;;;;;;0.00;0.00;;;21.40;45.30;;;;;;5030583;28;20199;-48
2023/11/30 10:40:08;;;;;;;0.00;0.00;;;21.40;45.40;;;;;;5030040;28;20573;-48
2023/11/30 10:42:42;;;;;;;0.00;0.00;;;21.30;45.30;;;;;;5030283;28;20270;-45
2023/11/30 10:45:15;;;;;;;0.00;0.00;;;21.30;45.40;;;;;;5033010;28;20559;-48
2023/11/30 10:47:46;;;;;;;0.08;0.08;;;21.30;45.40;;;;;;5034150;28;20188;-48
2023/11/30 10:50:18;;;;;;;0.00;0.00;;;21.30;45.40;;;;;;5034363;28;20282;-47
2023/11/30 10:52:50;;;;;;;0.10;0.10;;;21.30;45.50;;;;;;5034174;28;20198;-47
2023/11/30 10:55:23;;;;;;;0.00;0.00;;;21.30;45.50;;;;;;5035318;28;20667;-50
2023/11/30 10:57:56;;;;;;;0.05;0.05;;;21.30;45.50;;;;;;5034945;28;20196;-48
2023/11/30 11:00:27;;;;;;;0.00;0.00;;;21.30;45.50;;;;;;5034211;28;20636;-47
2023/11/30 11:03:09;;;;;;;0.10;0.10;;;21.30;45.50;;;;;;5033196;28;20203;-47
2023/11/30 11:05:46;;;;;;;0.10;0.10;;;21.20;45.40;;;;;;5028624;28;20204;-47
2023/11/30 11:08:18;;;;;;;0.10;0.10;;;21.20;45.40;;;;;;5034384;28;20283;-49
2023/11/30 11:10:50;;;;;;;0.00;0.00;;;21.20;45.40;;;;;;5034423;28;20231;-46
2023/11/30 11:13:28;;;;;;;0.00;0.00;;;21.20;46.10;;;;;;5025945;28;20197;-47
2023/11/30 11:16:02;;;;;;;0.00;0.00;;;21.20;45.50;;;;;;5013907;28;20208;-46
2023/11/30 11:18:35;;;;;;;0.05;0.05;;;21.20;45.50;;;;;;5027816;28;20204;-48
2023/11/30 11:21:06;;;;;;;0.00;0.00;;;21.20;45.50;;;;;;5033995;28;20216;-46
2023/11/30 11:23:42;;;;;;;0.10;0.10;;;21.10;45.50;;;;;;5033454;28;20649;-46
2023/11/30 11:26:16;;;;;;;0.10;0.10;;;21.10;45.50;;;;;;5032029;28;20187;-48
2023/11/30 11:28:49;;;;;;;0.10;0.10;;;21.10;45.50;;;;;;5034260;28;20192;-48
2023/11/30 11:31:20;;;;;;;0.10;0.10;;;21.10;45.50;;;;;;5033580;28;20216;-48
2023/11/30 11:33:52;;;;;;;0.00;0.00;;;21.10;45.50;;;;;;5033565;28;20200;-45
2023/11/30 11:36:25;;;;;;;0.00;0.00;;;21.00;45.50;;;;;;5034407;28;20196;-45
2023/11/30 11:38:56;;;;;;;0.00;0.00;;;21.10;45.60;;;;;;5025353;28;20250;-47
2023/11/30 11:41:27;;;;;;;0.00;0.00;;;21.00;45.50;;;;;;5032678;28;20262;-46
2023/11/30 11:44:00;;;;;;;0.00;0.00;;;21.00;45.50;;;;;;5033188;28;20196;-46
2023/11/30 11:46:32;;;;;;;0.00;0.00;;;21.00;45.60;;;;;;5033052;28;20223;-45
2023/11/30 11:49:02;;;;;;;0.00;0.00;;;21.00;46.20;;;;;;5033006;28;20200;-45
2023/11/30 11:51:43;;;;;;;0.00;0.00;;;21.00;45.50;;;;;;5033400;28;20255;-45
2023/11/30 11:54:20;;;;;;;0.00;0.00;;;21.00;45.60;;;;;;5033887;28;20664;-45
2023/11/30 11:56:52;;;;;;;0.00;0.00;;;21.00;45.50;;;;;;5033630;28;20192;-47
2023/11/30 11:59:31;;;;;;;0.03;0.03;;;21.00;45.50;;;;;;5032984;28;20196;-48
2023/11/30 12:02:02;;;;;;;0.00;0.00;;;20.90;45.50;;;;;;5032763;28;20191;-45
2023/11/30 12:04:35;;;;;;;0.00;0.00;;;20.90;45.50;;;;;;5033722;28;20246;-45
2023/11/30 12:07:17;;;;;;;0.00;0.00;;;20.90;45.50;;;;;;5034099;28;20199;-46
2023/11/30 12:09:57;;;;;;;0.10;0.10;;;20.90;45.60;;;;;;5033613;28;20493;-45
2023/11/30 12:12:34;;;;;;;0.00;0.00;;;20.90;45.60;;;;;;5033987;28;20246;-45
2023/11/30 12:15:08;;;;;;;0.10;0.10;;;20.90;45.60;;;;;;5033117;28;20191;-47
2023/11/30 12:17:39;;;;;;;0.10;0.10;;;20.90;45.60;;;;;;5031112;28;20357;-45
2023/11/30 12:20:10;;;;;;;0.00;0.00;;;20.90;45.60;;;;;;5032811;28;20240;-46
2023/11/30 12:22:41;;;;;;;0.10;0.10;;;20.80;45.60;;;;;;5033191;28;20188;-44
2023/11/30 12:25:12;;;;;;;0.00;0.00;;;20.80;45.60;;;;;;5033152;28;20644;-47
2023/11/30 12:27:43;;;;;;;0.00;0.00;;;20.80;45.60;;;;;;5033312;28;20184;-45
2023/11/30 12:30:16;;;;;;;0.00;0.00;;;20.80;45.60;;;;;;5032759;28;20220;-47
2023/11/30 12:32:46;;;;;;;0.00;0.00;;;20.80;45.70;;;;;;5032410;28;20192;-45
2023/11/30 12:35:17;;;;;;;0.00;0.00;;;20.80;45.70;;;;;;5031872;28;20251;-45
2023/11/30 12:37:48;;;;;;;0.00;0.00;;;20.80;45.70;;;;;;5032528;28;20671;-44
2023/11/30 12:40:21;;;;;;;0.00;0.00;;;20.80;45.60;;;;;;5031896;28;20216;-48
2023/11/30 12:42:51;;;;;;;0.00;0.00;;;20.80;45.60;;;;;;5032259;28;20192;-45
2023/11/30 12:45:24;;;;;;;0.03;0.03;;;20.70;45.60;;;;;;5032338;28;20203;-45
2023/11/30 12:47:55;;;;;;;0.00;0.00;;;20.70;45.60;;;;;;5030476;28;20193;-45
2023/11/30 12:50:26;;;;;;;0.00;0.00;;;20.70;45.60;;;;;;5032080;28;20231;-46
2023/11/30 12:52:57;;;;;;;0.10;0.10;;;20.70;45.60;;;;;;5028706;28;20558;-48
2023/11/30 12:55:28;;;;;;;0.10;0.10;;;20.70;45.70;;;;;;5032380;28;20394;-46
2023/11/30 12:57:58;;;;;;;0.00;0.00;;;20.70;45.70;;;;;;5033552;28;20671;-45
2023/11/30 13:00:31;;;;;;;0.03;0.03;;;20.70;45.70;;;;;;5032599;28;20238;-47
2023/11/30 13:03:02;;;;;;;0.10;0.10;;;20.60;45.70;;;;;;5032909;28;20198;-46
2023/11/30 13:05:32;;;;;;;0.10;0.10;;;20.70;45.70;;;;;;5019423;28;20197;-47
2023/11/30 13:08:03;;;;;;;0.10;0.10;;;20.60;45.70;;;;;;5012599;28;20563;-45
2023/11/30 13:10:34;;;;;;;0.00;0.00;;;20.60;45.70;;;;;;5021882;28;20240;-48